Wyndham P.O., Western Australia

12:21 PM AWST on August 31, 2016 (GMT +0800)
Kununurra | | Change Station

Elev 144 ft 15.78 °S, 128.71 °E | Updated 21 minutes ago

Mostly Cloudy
Mostly Cloudy
90 °F
Feels Like 91 °F
N
5
Wind Variable Wind from NNE

Today
High -- | Low -- °F
--% Chance of Precip.
Yesterday
High -- | Low -- °F
Precip. -- in
Pressure 29.92 in
Visibility 6.2 miles
Clouds Mostly Cloudy 7300 ft
Mostly Cloudy 8200 ft
Heat Index 91 °F
Dew Point 64 °F
Humidity 43%
Rainfall 0.00 in
Snow Depth Not available.
5:34 AM 5:21 PM
Waning Crescent, 2% visible
METAR YPKU 310400Z AUTO 02004KT 320V090 9999 // BKN073 BKN082 32/18 Q1013
Pressure 29.92 in
Visibility 6.2 miles
Clouds Mostly Cloudy 7300 ft
Mostly Cloudy 8200 ft
Heat Index 91 °F
Dew Point 64 °F
Humidity 43%
Rainfall 0.00 in
Snow Depth Not available.
5:34 AM 5:21 PM
Waning Crescent, 2% visible
METAR YPKU 310400Z AUTO 02004KT 320V090 9999 // BKN073 BKN082 32/18 Q1013

10-Day Weather Forecast

Almanac

Astronomy

Aug. 31, 2016 Rise Set
Actual Time
Civil Twilight
Nautical Twilight
Astronomical Twilight
Moon
Length of Visible Light
Length of Day
Tomorrow will be .
, % of the Moon is Illuminated

Today's Extremes

Country Highs Country Lows

Community

WunderPhotos

Upload Photos

1,936,035 photos uploaded!

WunderBlog® & News

Nearby

Air Quality

  Air Quality AQ Index Pollutant
Not available.

Snow Depth

Station Depth Elevation

Earthquake Activity

City Distance Mag. Time & Date
Minimum magnitude displayed is 2.5.

Coastal Water Temperatures

Place Temperature

Stations

Nearby Weather Stations

Station Location Temp. Windchill Dew Point Humidity Wind Precip. Elev Updated Type